Time;durP1;ratioP1;P1;durP2;ratioP2;P2;SDS_P1;SDS_P2;PMS_P1;PMS_P2;Temp;Humidity;BMP_temperature;BMP_pressure;BME280_temperature;BME280_humidity;BME280_pressure;Samples;Min_cycle;Max_cycle;Signal;HPM_P1;HPM_P2
2022/02/11 00:00:38;;;;;;;;;;;7.00;99.90;;;;;;5050637;28;19929;-49
2022/02/11 00:08:30;;;;;;;;;;;7.10;99.90;;;;;;4988186;28;20379;-47
2022/02/11 00:10:58;;;;;;;;;;;7.10;99.90;;;;;;5036827;28;19931;-49
2022/02/11 00:13:25;;;;;;;;;;;7.20;99.90;;;;;;5055428;28;19999;-47
2022/02/11 00:15:54;;;;;;;;;;;7.20;99.90;;;;;;5055200;28;19929;-48
2022/02/11 00:18:24;;;;;;;;;;;7.10;99.90;;;;;;5055064;28;19924;-48
2022/02/11 00:20:52;;;;;;;;;;;7.10;99.90;;;;;;5054239;28;19983;-47
2022/02/11 00:23:19;;;;;;;;;;;7.00;99.90;;;;;;5054542;28;19978;-48
2022/02/11 00:25:51;;;;;;;;;;;7.10;99.90;;;;;;5055274;28;19971;-47
2022/02/11 00:29:25;;;;;;;;;;;7.10;99.90;;;;;;5054769;28;19929;-47
2022/02/11 00:34:24;;;;;;;;;;;7.20;99.90;;;;;;5055015;28;19943;-48
2022/02/11 00:37:00;;;;;;;;;;;7.00;99.90;;;;;;5054987;28;19925;-48
2022/02/11 01:02:09;;;;;;;;;;;6.80;99.90;;;;;;5053643;28;20299;-48
2022/02/11 01:02:22;;;;;;;;;;;6.90;99.90;;;;;;5043787;28;19932;-49
2022/02/11 01:04:49;;;;;;;;;;;7.00;99.90;;;;;;5052651;28;19929;-47
2022/02/11 01:07:15;;;;;;;;;;;7.00;99.90;;;;;;5053313;28;19928;-47
2022/02/11 01:09:42;;;;;;;;;;;6.90;99.90;;;;;;5052244;28;19971;-49
2022/02/11 01:12:10;;;;;;;;;;;6.90;99.90;;;;;;5052608;28;19924;-48
2022/02/11 01:14:39;;;;;;;;;;;6.90;99.90;;;;;;5052881;28;20062;-48
2022/02/11 01:17:14;;;;;;;;;;;6.90;99.90;;;;;;5047989;28;21488;-47
2022/02/11 01:19:51;;;;;;;;;;;6.90;99.90;;;;;;5052516;28;19925;-48
2022/02/11 01:22:29;;;;;;;;;;;6.90;99.90;;;;;;5050908;28;19932;-48
2022/02/11 01:25:10;;;;;;;;;;;6.80;99.90;;;;;;5045357;28;19978;-48
2022/02/11 01:27:44;;;;;;;;;;;6.80;99.90;;;;;;5052928;28;19925;-49
2022/02/11 01:33:30;;;;;;;;;;;7.20;99.90;;;;;;5036535;28;20011;-49
2022/02/11 01:36:06;;;;;;;;;;;7.10;99.90;;;;;;5051869;28;20378;-49
2022/02/11 01:38:44;;;;;;;;;;;7.10;99.90;;;;;;5050356;28;19984;-48
2022/02/11 01:44:27;;;;;;;;;;;6.90;99.90;;;;;;5043151;28;19937;-48
2022/02/11 01:52:50;;;;;;;;;;;6.50;99.90;;;;;;5010094;28;19955;-48
2022/02/11 01:55:34;;;;;;;;;;;6.10;99.90;;;;;;5051393;28;19987;-49
2022/02/11 02:01:15;;;;;;;;;;;5.90;99.90;;;;;;5015277;28;20019;-49
2022/02/11 02:04:14;;;;;;;;;;;5.70;99.90;;;;;;5065478;28;20259;-48
2022/02/11 02:09:54;;;;;;;;;;;5.70;99.90;;;;;;5019154;28;20023;-49
2022/02/11 02:12:47;;;;;;;;;;;5.60;99.90;;;;;;5052734;28;19931;-48
2022/02/11 02:26:51;;;;;;;;;;;5.50;99.90;;;;;;5006222;28;19935;-50
2022/02/11 02:38:19;;;;;;;;;;;5.20;99.90;;;;;;5106941;27;19924;-50
2022/02/11 02:57:17;;;;;;;;;;;5.20;99.90;;;;;;5098333;28;20045;-50
2022/02/11 03:00:04;;;;;;;;;;;5.20;99.90;;;;;;5088800;28;19928;-50
2022/02/11 03:35:39;;;;;;;;;;;5.30;99.90;;;;;;5085600;28;19931;-50
2022/02/11 03:49:18;;;;;;;;;;;5.50;99.90;;;;;;5093707;28;19927;-49
2022/02/11 03:52:16;;;;;;;;;;;5.60;99.90;;;;;;5094959;28;19998;-50
2022/02/11 04:22:29;;;;;;;;;;;5.80;99.90;;;;;;5094428;28;20324;-49
2022/02/11 04:55:07;;;;;;;;;;;5.70;99.90;;;;;;5093657;28;19943;-50
2022/02/11 05:00:19;;;;;;;;;;;5.80;99.90;;;;;;5092823;28;19927;-51
2022/02/11 05:02:47;;;;;;;;;;;5.80;99.90;;;;;;5105650;28;19924;-50
2022/02/11 05:05:15;;;;;;;;;;;5.90;99.90;;;;;;5093342;28;19924;-49
2022/02/11 05:07:42;;;;;;;;;;;5.80;99.90;;;;;;5093135;28;19924;-50
2022/02/11 05:10:09;;;;;;;;;;;5.90;99.90;;;;;;5093061;28;20343;-50
2022/02/11 05:12:36;;;;;;;;;;;5.90;99.90;;;;;;5093547;28;20381;-50
2022/02/11 05:15:08;;;;;;;;;;;5.90;99.90;;;;;;5113899;22;20007;-51
2022/02/11 05:17:35;;;;;;;;;;;5.90;99.90;;;;;;5095439;28;19924;-53
2022/02/11 05:20:02;;;;;;;;;;;5.90;99.90;;;;;;5101987;28;20000;-51
2022/02/11 05:22:30;;;;;;;;;;;5.90;99.90;;;;;;5114882;28;19923;-52
2022/02/11 05:24:56;;;;;;;;;;;5.90;99.90;;;;;;5095471;28;19970;-52
2022/02/11 05:27:23;;;;;;;;;;;5.70;99.90;;;;;;5099102;28;19977;-51
2022/02/11 05:29:50;;;;;;;;;;;5.60;99.90;;;;;;5094970;28;19924;-51
2022/02/11 05:32:17;;;;;;;;;;;5.60;99.90;;;;;;5085650;28;20004;-51
2022/02/11 05:34:44;;;;;;;;;;;5.70;99.90;;;;;;5094834;28;19947;-50
2022/02/11 05:37:11;;;;;;;;;;;5.60;99.90;;;;;;5079646;28;20015;-51
2022/02/11 05:39:39;;;;;;;;;;;5.60;99.90;;;;;;5089807;28;19925;-52
2022/02/11 05:42:06;;;;;;;;;;;5.60;99.90;;;;;;5081867;28;20022;-52
2022/02/11 05:44:33;;;;;;;;;;;5.50;99.90;;;;;;5095211;28;19924;-52
2022/02/11 05:47:00;;;;;;;;;;;5.50;99.90;;;;;;5085593;28;19929;-52
2022/02/11 05:49:27;;;;;;;;;;;5.40;99.90;;;;;;5075199;28;19951;-52
2022/02/11 05:51:53;;;;;;;;;;;5.50;99.90;;;;;;5086849;28;19924;-52
2022/02/11 05:54:20;;;;;;;;;;;5.50;99.90;;;;;;5096507;28;19924;-51
2022/02/11 05:56:48;;;;;;;;;;;5.40;99.90;;;;;;5092404;28;19924;-51
2022/02/11 05:59:16;;;;;;;;;;;5.40;99.90;;;;;;5079679;28;19925;-51
2022/02/11 06:01:43;;;;;;;;;;;5.50;99.90;;;;;;5083213;28;19970;-52
2022/02/11 06:04:10;;;;;;;;;;;5.30;99.90;;;;;;5098014;28;19924;-52
2022/02/11 06:06:37;;;;;;;;;;;5.30;99.90;;;;;;5102092;28;19924;-52
2022/02/11 06:09:04;;;;;;;;;;;5.20;99.90;;;;;;5107002;28;19924;-51
2022/02/11 06:11:31;;;;;;;;;;;5.30;99.90;;;;;;5102282;28;19930;-57
2022/02/11 06:13:59;;;;;;;;;;;5.30;99.90;;;;;;5100101;28;19942;-52
2022/02/11 06:31:43;;;;;;;;;;;4.80;99.90;;;;;;5097436;28;20007;-52
2022/02/11 06:34:09;;;;;;;;;;;4.60;99.90;;;;;;5092964;28;19924;-51
2022/02/11 06:36:36;;;;;;;;;;;4.60;99.90;;;;;;5099414;28;19928;-52
2022/02/11 06:39:03;;;;;;;;;;;4.60;99.90;;;;;;5104841;28;19924;-51
2022/02/11 06:41:30;;;;;;;;;;;4.70;99.90;;;;;;5087169;28;19946;-52
2022/02/11 06:43:57;;;;;;;;;;;4.50;99.90;;;;;;5093637;28;19924;-53
2022/02/11 06:46:24;;;;;;;;;;;4.40;99.90;;;;;;5085953;28;19928;-52
2022/02/11 06:48:52;;;;;;;;;;;4.30;99.90;;;;;;5106327;28;19928;-52
2022/02/11 06:51:18;;;;;;;;;;;4.30;99.90;;;;;;5107205;28;19974;-52
2022/02/11 06:53:45;;;;;;;;;;;4.20;99.90;;;;;;5092561;28;19925;-52
2022/02/11 06:56:12;;;;;;;;;;;4.10;99.90;;;;;;5090302;28;19947;-52
2022/02/11 06:58:39;;;;;;;;;;;4.10;99.90;;;;;;5103462;28;19924;-52
2022/02/11 07:01:05;;;;;;;;;;;4.10;99.90;;;;;;5104107;28;19931;-53
2022/02/11 07:03:33;;;;;;;;;;;4.10;99.90;;;;;;5079341;28;20390;-53
2022/02/11 07:06:03;;;;;;;;;;;4.00;99.90;;;;;;5073404;28;19978;-53
2022/02/11 07:08:29;;;;;;;;;;;4.10;99.90;;;;;;5072576;28;19931;-52
2022/02/11 07:10:57;;;;;;;;;;;4.00;99.90;;;;;;5073178;28;19974;-52
2022/02/11 07:13:24;;;;;;;;;;;3.90;99.90;;;;;;5082576;28;19924;-52
2022/02/11 07:15:51;;;;;;;;;;;4.00;99.90;;;;;;5093652;28;19924;-53
2022/02/11 07:18:17;;;;;;;;;;;3.90;99.90;;;;;;5092845;28;20389;-52
2022/02/11 07:20:44;;;;;;;;;;;3.90;99.90;;;;;;5091856;28;19924;-53
2022/02/11 07:23:13;;;;;;;;;;;3.90;99.90;;;;;;5090540;28;19925;-53
2022/02/11 07:25:40;;;;;;;;;;;3.90;99.90;;;;;;5082850;28;19924;-53
2022/02/11 07:28:07;;;;;;;;;;;3.90;99.90;;;;;;5086226;28;20027;-52
2022/02/11 07:30:34;;;;;;;;;;;3.80;99.90;;;;;;5094322;28;19932;-52
2022/02/11 07:33:01;;;;;;;;;;;3.70;99.90;;;;;;5076595;28;19975;-53
2022/02/11 07:35:29;;;;;;;;;;;3.70;99.90;;;;;;5093941;28;20286;-53
2022/02/11 07:37:56;;;;;;;;;;;3.80;99.90;;;;;;5090952;28;19929;-55
2022/02/11 07:40:24;;;;;;;;;;;3.70;99.90;;;;;;5076749;28;20387;-53
2022/02/11 07:42:52;;;;;;;;;;;3.70;99.90;;;;;;5076517;28;19970;-53
2022/02/11 07:45:19;;;;;;;;;;;3.80;99.90;;;;;;5076354;28;20008;-53
2022/02/11 07:47:45;;;;;;;;;;;3.80;99.90;;;;;;5095459;28;20394;-53
2022/02/11 07:50:12;;;;;;;;;;;4.00;99.90;;;;;;5078318;28;19925;-53
2022/02/11 07:52:39;;;;;;;;;;;4.00;99.90;;;;;;5077133;28;19925;-52
2022/02/11 07:55:06;;;;;;;;;;;4.00;99.90;;;;;;5083701;28;19928;-53
2022/02/11 07:57:34;;;;;;;;;;;4.00;99.90;;;;;;5095344;28;20443;-53
2022/02/11 08:00:04;;;;;;;;;;;4.00;99.90;;;;;;5091349;28;19982;-52
2022/02/11 08:02:31;;;;;;;;;;;4.00;99.90;;;;;;5076128;28;19924;-52
2022/02/11 08:04:58;;;;;;;;;;;4.00;99.90;;;;;;5075668;28;20390;-52
2022/02/11 08:07:25;;;;;;;;;;;4.00;99.90;;;;;;5089872;28;19970;-52
2022/02/11 08:09:52;;;;;;;;;;;4.10;99.90;;;;;;5088095;28;19924;-54
2022/02/11 08:12:18;;;;;;;;;;;4.00;99.90;;;;;;5085555;28;19924;-52
2022/02/11 08:14:46;;;;;;;;;;;4.00;99.90;;;;;;5076006;28;20287;-52
2022/02/11 08:17:13;;;;;;;;;;;4.00;99.90;;;;;;5091290;28;19977;-52
2022/02/11 08:19:40;;;;;;;;;;;4.00;99.90;;;;;;5080172;28;19932;-51
2022/02/11 08:22:07;;;;;;;;;;;4.10;99.90;;;;;;5076096;28;19981;-51
2022/02/11 08:24:34;;;;;;;;;;;4.00;99.90;;;;;;5092571;28;19924;-51
2022/02/11 08:27:00;;;;;;;;;;;3.90;99.90;;;;;;5096750;28;19973;-51
2022/02/11 08:29:31;;;;;;;;;;;3.80;99.90;;;;;;5094806;28;19958;-52
2022/02/11 08:31:59;;;;;;;;;;;3.90;99.90;;;;;;5116715;28;19924;-51
2022/02/11 08:34:26;;;;;;;;;;;4.00;99.90;;;;;;5108515;28;19927;-51
2022/02/11 08:36:53;;;;;;;;;;;4.00;99.90;;;;;;5117357;27;19928;-52
2022/02/11 08:39:20;;;;;;;;;;;4.00;99.90;;;;;;5115857;28;19930;-53
2022/02/11 08:41:48;;;;;;;;;;;4.10;99.90;;;;;;5107598;28;19954;-51
2022/02/11 08:44:15;;;;;;;;;;;4.10;99.90;;;;;;5095112;28;19924;-52
2022/02/11 08:46:41;;;;;;;;;;;4.40;99.90;;;;;;5095556;28;19981;-52
2022/02/11 08:49:10;;;;;;;;;;;4.40;99.90;;;;;;5100060;28;19927;-52
2022/02/11 08:51:37;;;;;;;;;;;4.30;99.90;;;;;;5094775;28;19924;-52
2022/02/11 08:54:04;;;;;;;;;;;4.50;99.90;;;;;;5095409;28;20040;-53
2022/02/11 08:56:30;;;;;;;;;;;4.60;99.90;;;;;;5095560;28;19924;-52
2022/02/11 08:58:57;;;;;;;;;;;4.50;99.90;;;;;;5088388;28;19928;-54
2022/02/11 09:01:24;;;;;;;;;;;4.40;99.90;;;;;;5084287;28;19932;-54
2022/02/11 09:03:51;;;;;;;;;;;4.40;99.90;;;;;;5085476;28;19932;-56
2022/02/11 09:06:20;;;;;;;;;;;4.30;99.90;;;;;;5085137;28;19969;-52
2022/02/11 09:08:47;;;;;;;;;;;4.30;99.90;;;;;;5086646;28;19932;-53
2022/02/11 09:11:19;;;;;;;;;;;4.30;99.90;;;;;;5092171;28;19928;-53
2022/02/11 09:13:46;;;;;;;;;;;4.20;99.90;;;;;;5075814;28;20336;-53
2022/02/11 09:16:12;;;;;;;;;;;4.20;99.90;;;;;;5075168;28;19924;-53
2022/02/11 09:18:40;;;;;;;;;;;4.20;99.90;;;;;;5074368;28;19924;-53
2022/02/11 09:21:06;;;;;;;;;;;4.20;99.90;;;;;;5076899;28;19924;-52
2022/02/11 09:23:35;;;;;;;;;;;4.20;99.90;;;;;;5083056;28;19999;-55
2022/02/11 09:26:02;;;;;;;;;;;4.20;99.90;;;;;;5094577;28;20386;-53
2022/02/11 09:28:28;;;;;;;;;;;4.10;99.90;;;;;;5094206;28;20014;-53
2022/02/11 09:30:55;;;;;;;;;;;4.20;99.90;;;;;;5091541;28;20301;-53
2022/02/11 09:33:22;;;;;;;;;;;4.10;99.90;;;;;;5087541;28;19931;-53
2022/02/11 09:35:50;;;;;;;;;;;4.10;99.90;;;;;;5094553;28;20321;-53
2022/02/11 09:38:18;;;;;;;;;;;4.20;99.90;;;;;;5094454;28;20005;-53
2022/02/11 09:40:50;;;;;;;;;;;4.20;99.90;;;;;;5092720;28;19924;-52
2022/02/11 09:43:17;;;;;;;;;;;4.10;99.90;;;;;;5094490;28;19931;-53
2022/02/11 09:45:44;;;;;;;;;;;4.10;99.90;;;;;;5093902;28;19924;-54
2022/02/11 09:48:11;;;;;;;;;;;4.20;99.90;;;;;;5080872;28;19979;-54
2022/02/11 09:50:38;;;;;;;;;;;4.20;99.90;;;;;;5074166;28;19985;-53
2022/02/11 09:53:04;;;;;;;;;;;4.10;99.90;;;;;;5073693;28;19924;-52
2022/02/11 09:55:35;;;;;;;;;;;4.20;99.90;;;;;;5074158;28;19924;-53
2022/02/11 09:58:05;;;;;;;;;;;4.20;99.90;;;;;;5087102;28;20531;-53
2022/02/11 10:00:31;;;;;;;;;;;4.20;99.90;;;;;;5092878;28;19925;-52
2022/02/11 10:02:59;;;;;;;;;;;4.20;99.90;;;;;;5093906;28;20386;-53
2022/02/11 10:05:27;;;;;;;;;;;4.40;99.90;;;;;;5094377;28;19924;-52
2022/02/11 10:07:54;;;;;;;;;;;4.60;99.90;;;;;;5093718;28;19969;-52
2022/02/11 10:13:03;;;;;;;;;;;4.60;99.90;;;;;;5073856;28;19975;-53
2022/02/11 10:15:30;;;;;;;;;;;4.80;99.90;;;;;;5073905;28;19928;-53
2022/02/11 10:17:57;;;;;;;;;;;4.80;99.90;;;;;;5073807;28;19925;-53
2022/02/11 10:20:26;;;;;;;;;;;4.70;99.90;;;;;;5075194;28;19929;-53
2022/02/11 10:23:02;;;;;;;;;;;4.50;99.90;;;;;;5073150;28;19936;-53
2022/02/11 10:25:30;;;;;;;;;;;4.40;99.90;;;;;;5073028;28;20000;-53
2022/02/11 10:27:56;;;;;;;;;;;4.50;99.90;;;;;;5073117;28;19929;-53
2022/02/11 10:30:24;;;;;;;;;;;4.50;99.90;;;;;;5074497;28;19925;-54
2022/02/11 10:32:52;;;;;;;;;;;5.00;99.90;;;;;;5094272;28;19924;-54
2022/02/11 10:35:19;;;;;;;;;;;6.90;99.90;;;;;;5096401;28;19950;-53
2022/02/11 10:38:05;;;;;;;;;;;8.10;99.90;;;;;;5093485;28;19924;-53
2022/02/11 10:40:33;;;;;;;;;;;8.10;99.90;;;;;;5090751;28;19961;-52
2022/02/11 10:43:00;;;;;;;;;;;8.30;99.90;;;;;;5073345;28;19924;-53
2022/02/11 10:45:29;;;;;;;;;;;8.20;99.90;;;;;;5073139;28;19924;-53
2022/02/11 10:48:08;;;;;;;;;;;8.70;99.90;;;;;;5072874;28;19929;-55
2022/02/11 10:50:35;;;;;;;;;;;8.80;99.90;;;;;;5076011;28;19971;-54
2022/02/11 10:53:02;;;;;;;;;;;10.10;99.90;;;;;;5082295;28;19924;-53
2022/02/11 10:55:29;;;;;;;;;;;10.20;99.90;;;;;;5093466;28;19997;-53
2022/02/11 10:57:58;;;;;;;;;;;10.10;99.90;;;;;;5093778;28;19931;-55
2022/02/11 11:00:25;;;;;;;;;;;9.60;99.90;;;;;;5094788;28;19924;-53
2022/02/11 11:02:54;;;;;;;;;;;8.80;99.90;;;;;;5088183;28;19978;-53
2022/02/11 11:05:22;;;;;;;;;;;8.60;99.90;;;;;;5076963;28;19983;-53
2022/02/11 11:07:49;;;;;;;;;;;8.30;99.90;;;;;;5076645;28;20481;-53
2022/02/11 11:10:16;;;;;;;;;;;7.90;99.90;;;;;;5078149;28;20401;-53
2022/02/11 11:12:44;;;;;;;;;;;7.70;99.90;;;;;;5076479;28;20352;-54
2022/02/11 11:15:12;;;;;;;;;;;7.50;99.90;;;;;;5096590;22;20323;-50
2022/02/11 11:17:39;;;;;;;;;;;7.50;99.90;;;;;;5074562;28;20382;-49
2022/02/11 11:20:09;;;;;;;;;;;7.60;99.90;;;;;;5073952;28;20313;-52
2022/02/11 11:22:38;;;;;;;;;;;7.70;99.90;;;;;;5071377;28;19933;-49
2022/02/11 11:25:06;;;;;;;;;;;7.70;99.90;;;;;;5074496;28;19925;-50
2022/02/11 11:27:40;;;;;;;;;;;7.80;99.90;;;;;;5075023;28;19925;-51
2022/02/11 11:30:23;;;;;;;;;;;7.60;99.90;;;;;;5074584;28;19924;-52
2022/02/11 11:33:23;;;;;;;;;;;7.30;99.90;;;;;;5070480;28;19924;-50
2022/02/11 11:36:05;;;;;;;;;;;7.10;99.90;;;;;;5011989;28;19926;-49
2022/02/11 11:38:39;;;;;;;;;;;7.10;99.90;;;;;;5012114;28;19991;-49
2022/02/11 11:41:08;;;;;;;;;;;7.20;99.90;;;;;;5037221;28;20016;-50
2022/02/11 11:43:36;;;;;;;;;;;7.40;99.90;;;;;;5059279;28;20044;-51
2022/02/11 11:46:04;;;;;;;;;;;7.80;99.90;;;;;;5054527;28;20017;-51
2022/02/11 11:48:51;;;;;;;;;;;8.00;99.90;;;;;;5054172;28;19929;-50
2022/02/11 11:51:19;;;;;;;;;;;8.30;99.90;;;;;;5054014;28;20374;-50
2022/02/11 11:53:46;;;;;;;;;;;8.20;99.90;;;;;;5064819;28;19925;-51
2022/02/11 11:56:31;;;;;;;;;;;8.20;99.90;;;;;;5074457;28;19970;-50
2022/02/11 11:58:58;;;;;;;;;;;8.20;99.90;;;;;;5074117;28;19932;-49
2022/02/11 12:01:24;;;;;;;;;;;8.00;99.90;;;;;;5073736;28;19932;-50
2022/02/11 12:04:06;;;;;;;;;;;8.00;99.90;;;;;;5056718;28;19994;-51
2022/02/11 12:06:35;;;;;;;;;;;8.20;99.90;;;;;;5053551;28;19979;-50
2022/02/11 12:09:03;;;;;;;;;;;8.40;99.90;;;;;;5053119;28;19979;-51
2022/02/11 12:11:30;;;;;;;;;;;8.60;99.90;;;;;;5053852;28;19941;-52
2022/02/11 12:13:58;;;;;;;;;;;8.60;99.90;;;;;;5053296;28;19978;-50
2022/02/11 12:16:25;;;;;;;;;;;8.60;99.90;;;;;;5053117;28;20394;-51
2022/02/11 12:18:52;;;;;;;;;;;8.70;99.90;;;;;;5053325;28;19928;-49
2022/02/11 12:21:19;;;;;;;;;;;8.70;99.90;;;;;;5053578;28;19931;-50
2022/02/11 12:29:12;;;;;;;;;;;7.40;99.90;;;;;;5050171;28;19924;-50
2022/02/11 12:31:40;;;;;;;;;;;7.30;99.90;;;;;;5053798;28;19925;-50
2022/02/11 12:34:13;;;;;;;;;;;7.00;99.90;;;;;;5053510;28;19928;-49
2022/02/11 12:36:40;;;;;;;;;;;6.80;99.90;;;;;;5061147;28;20495;-50
2022/02/11 12:39:08;;;;;;;;;;;7.10;99.90;;;;;;5073209;28;19982;-50
2022/02/11 12:41:44;;;;;;;;;;;7.20;99.90;;;;;;5073157;28;19924;-49
2022/02/11 12:44:11;;;;;;;;;;;7.60;99.90;;;;;;5073281;28;20019;-50
2022/02/11 12:46:38;;;;;;;;;;;8.00;99.90;;;;;;5060515;28;19924;-51
2022/02/11 12:49:05;;;;;;;;;;;8.30;99.90;;;;;;5064613;28;19977;-50
2022/02/11 12:51:32;;;;;;;;;;;8.50;99.90;;;;;;5073342;28;19931;-49
2022/02/11 12:54:05;;;;;;;;;;;8.60;99.90;;;;;;5073324;28;19924;-49
2022/02/11 12:56:34;;;;;;;;;;;8.70;99.90;;;;;;5067481;28;19925;-50
2022/02/11 12:59:07;;;;;;;;;;;8.60;99.90;;;;;;5069688;28;19981;-51
2022/02/11 13:01:34;;;;;;;;;;;8.60;99.90;;;;;;5053015;28;20391;-50
2022/02/11 13:04:00;;;;;;;;;;;8.80;99.90;;;;;;5052556;28;19978;-49
2022/02/11 13:06:27;;;;;;;;;;;8.80;99.90;;;;;;5053910;28;19976;-52
2022/02/11 13:09:00;;;;;;;;;;;8.70;99.90;;;;;;5052328;28;19925;-50
2022/02/11 13:11:27;;;;;;;;;;;8.50;99.90;;;;;;5052276;28;20533;-50
2022/02/11 13:14:04;;;;;;;;;;;8.40;99.90;;;;;;5052140;28;19940;-52
2022/02/11 13:16:31;;;;;;;;;;;8.30;99.90;;;;;;5053261;28;20019;-50
2022/02/11 13:18:58;;;;;;;;;;;8.30;99.90;;;;;;5051484;28;19925;-53
2022/02/11 13:21:27;;;;;;;;;;;8.10;99.90;;;;;;5051556;28;19976;-50
2022/02/11 13:23:53;;;;;;;;;;;8.20;99.90;;;;;;5048575;28;19932;-51
2022/02/11 13:26:26;;;;;;;;;;;8.00;99.90;;;;;;5035883;28;19990;-52
2022/02/11 13:28:55;;;;;;;;;;;8.10;99.90;;;;;;5058383;28;20398;-51
2022/02/11 13:31:23;;;;;;;;;;;7.90;99.90;;;;;;5050938;28;19925;-50
2022/02/11 13:34:02;;;;;;;;;;;8.00;99.90;;;;;;5050760;28;19970;-49
2022/02/11 13:36:29;;;;;;;;;;;7.90;99.90;;;;;;5053738;28;19924;-48
2022/02/11 13:38:59;;;;;;;;;;;8.00;99.90;;;;;;5072343;28;19967;-49
2022/02/11 13:41:27;;;;;;;;;;;8.10;99.90;;;;;;5057252;28;20008;-50
2022/02/11 13:43:55;;;;;;;;;;;8.00;99.90;;;;;;5052288;28;19970;-49
2022/02/11 13:46:27;;;;;;;;;;;7.70;99.90;;;;;;5054533;28;19925;-49
2022/02/11 13:48:54;;;;;;;;;;;7.80;99.90;;;;;;5072213;28;20015;-50
2022/02/11 13:51:21;;;;;;;;;;;7.70;99.90;;;;;;5072324;28;19924;-49
2022/02/11 13:53:52;;;;;;;;;;;7.70;99.90;;;;;;5072224;28;19970;-50
2022/02/11 13:56:22;;;;;;;;;;;7.50;99.90;;;;;;5070981;28;20005;-50
2022/02/11 13:59:02;;;;;;;;;;;7.50;99.90;;;;;;5072364;28;19931;-49
2022/02/11 14:01:31;;;;;;;;;;;7.50;99.90;;;;;;5072167;28;19928;-49
2022/02/11 14:03:58;;;;;;;;;;;7.40;99.90;;;;;;5072073;28;19925;-49
2022/02/11 14:06:25;;;;;;;;;;;7.60;99.90;;;;;;5070070;28;20007;-49
2022/02/11 14:08:53;;;;;;;;;;;7.60;99.90;;;;;;5051661;28;20349;-50
2022/02/11 14:11:20;;;;;;;;;;;7.60;99.90;;;;;;5052941;28;19925;-50
2022/02/11 14:13:47;;;;;;;;;;;7.60;99.90;;;;;;5051714;28;19924;-53
2022/02/11 14:16:14;;;;;;;;;;;7.60;99.90;;;;;;5050856;28;19929;-50
2022/02/11 14:18:43;;;;;;;;;;;7.50;99.90;;;;;;5047129;28;20394;-51
2022/02/11 14:21:14;;;;;;;;;;;7.40;99.90;;;;;;5051768;28;20394;-49
2022/02/11 14:23:41;;;;;;;;;;;7.40;99.90;;;;;;5051856;28;20006;-50
2022/02/11 14:26:08;;;;;;;;;;;7.40;99.90;;;;;;5061802;28;19970;-51
2022/02/11 14:28:35;;;;;;;;;;;7.40;99.90;;;;;;5053582;28;19971;-50
2022/02/11 14:31:04;;;;;;;;;;;7.20;99.90;;;;;;5051629;28;19925;-50
2022/02/11 14:33:30;;;;;;;;;;;7.20;99.90;;;;;;5051709;28;19978;-50
2022/02/11 14:35:58;;;;;;;;;;;7.30;99.90;;;;;;5051761;28;19929;-50
2022/02/11 14:38:25;;;;;;;;;;;7.10;99.90;;;;;;5062635;28;20470;-50
2022/02/11 14:43:37;;;;;;;;;;;7.00;99.90;;;;;;5071728;28;20329;-51
2022/02/11 14:46:04;;;;;;;;;;;7.10;99.90;;;;;;5071481;28;20019;-50
2022/02/11 14:48:31;;;;;;;;;;;7.20;99.90;;;;;;5069695;28;19924;-51
2022/02/11 14:50:59;;;;;;;;;;;7.10;99.90;;;;;;5071573;28;19928;-49
2022/02/11 14:53:27;;;;;;;;;;;7.20;99.90;;;;;;5071447;28;20329;-48
2022/02/11 14:55:54;;;;;;;;;;;7.10;99.90;;;;;;5071353;28;20344;-48
2022/02/11 14:58:21;;;;;;;;;;;7.10;99.90;;;;;;5060769;28;19925;-49
2022/02/11 15:00:48;;;;;;;;;;;7.00;99.90;;;;;;5051269;28;19975;-49
2022/02/11 15:03:14;;;;;;;;;;;7.10;99.90;;;;;;5051060;28;20390;-49
2022/02/11 15:05:41;;;;;;;;;;;7.00;99.90;;;;;;5050888;28;19925;-49
2022/02/11 15:08:09;;;;;;;;;;;7.00;99.90;;;;;;5050603;28;19929;-49
2022/02/11 15:10:37;;;;;;;;;;;7.00;99.90;;;;;;5050943;28;20606;-48
2022/02/11 15:13:08;;;;;;;;;;;7.00;99.90;;;;;;5051305;28;19971;-49
2022/02/11 15:15:36;;;;;;;;;;;6.90;99.90;;;;;;5050816;28;19925;-49
2022/02/11 15:18:02;;;;;;;;;;;6.90;99.90;;;;;;5057724;28;19980;-49
2022/02/11 15:20:29;;;;;;;;;;;7.00;99.90;;;;;;5071220;28;19924;-50
2022/02/11 15:22:56;;;;;;;;;;;7.00;99.90;;;;;;5067498;28;19936;-49
2022/02/11 15:25:24;;;;;;;;;;;7.10;99.90;;;;;;5050787;28;19925;-48
2022/02/11 15:27:51;;;;;;;;;;;7.10;99.90;;;;;;5055701;28;20393;-50
2022/02/11 15:30:17;;;;;;;;;;;7.10;99.90;;;;;;5070815;28;19981;-49
2022/02/11 15:32:44;;;;;;;;;;;7.00;99.90;;;;;;5071021;28;19925;-50
2022/02/11 15:35:11;;;;;;;;;;;6.90;99.90;;;;;;5070852;28;19979;-49
2022/02/11 15:37:38;;;;;;;;;;;6.90;99.90;;;;;;5060731;28;19932;-50
2022/02/11 15:40:06;;;;;;;;;;;7.00;99.90;;;;;;5070951;28;19928;-49
2022/02/11 15:42:35;;;;;;;;;;;6.90;99.90;;;;;;5071159;28;19924;-49
2022/02/11 15:45:02;;;;;;;;;;;6.90;99.90;;;;;;5073251;28;19928;-50
2022/02/11 15:47:29;;;;;;;;;;;6.90;99.90;;;;;;5072304;28;19925;-47
2022/02/11 15:49:56;;;;;;;;;;;7.10;99.90;;;;;;5053842;28;19924;-49
2022/02/11 15:52:24;;;;;;;;;;;6.80;99.90;;;;;;5054296;28;20031;-49
2022/02/11 15:54:50;;;;;;;;;;;6.80;99.90;;;;;;5073383;28;19924;-49
2022/02/11 15:57:18;;;;;;;;;;;6.70;99.90;;;;;;5069440;28;19925;-48
2022/02/11 15:59:46;;;;;;;;;;;6.50;99.90;;;;;;5034197;28;19932;-49
2022/02/11 16:02:13;;;;;;;;;;;6.20;99.90;;;;;;5054879;28;20413;-49
2022/02/11 16:04:40;;;;;;;;;;;6.20;99.90;;;;;;5053573;28;19986;-49
2022/02/11 16:07:06;;;;;;;;;;;6.10;99.90;;;;;;5053909;28;19924;-49
2022/02/11 16:09:33;;;;;;;;;;;6.00;99.90;;;;;;5053829;28;19995;-48
2022/02/11 16:12:01;;;;;;;;;;;5.70;99.90;;;;;;5054815;28;20352;-48
2022/02/11 16:14:28;;;;;;;;;;;5.60;99.90;;;;;;5034030;28;20021;-48
2022/02/11 16:16:56;;;;;;;;;;;5.50;99.90;;;;;;5034093;28;19971;-50
2022/02/11 16:19:22;;;;;;;;;;;5.40;99.90;;;;;;5033059;28;19929;-48
2022/02/11 16:21:49;;;;;;;;;;;5.40;99.90;;;;;;5040589;28;20019;-49
2022/02/11 16:24:16;;;;;;;;;;;5.20;99.90;;;;;;5052381;28;19971;-48
2022/02/11 16:26:43;;;;;;;;;;;5.10;99.90;;;;;;5034018;28;19979;-48
2022/02/11 16:29:09;;;;;;;;;;;4.80;99.90;;;;;;5033503;28;19929;-49
2022/02/11 16:31:36;;;;;;;;;;;4.70;99.90;;;;;;5039187;28;19955;-48
2022/02/11 16:34:04;;;;;;;;;;;4.50;99.90;;;;;;5054209;28;19967;-48
2022/02/11 16:36:32;;;;;;;;;;;4.50;99.90;;;;;;5053637;28;19931;-48
2022/02/11 16:38:59;;;;;;;;;;;4.40;99.90;;;;;;5063189;28;19928;-48
2022/02/11 16:41:25;;;;;;;;;;;4.30;99.90;;;;;;5055782;28;19929;-48
2022/02/11 16:43:52;;;;;;;;;;;4.30;99.90;;;;;;5053320;28;19979;-48
2022/02/11 16:46:20;;;;;;;;;;;4.10;99.90;;;;;;5053401;28;19932;-48
2022/02/11 16:48:47;;;;;;;;;;;4.00;99.90;;;;;;5053107;28;20383;-49
2022/02/11 16:51:15;;;;;;;;;;;3.80;99.90;;;;;;5054396;28;19979;-48
2022/02/11 16:53:44;;;;;;;;;;;3.60;99.90;;;;;;5053205;28;19925;-48
2022/02/11 16:56:11;;;;;;;;;;;3.50;99.90;;;;;;5053318;28;19925;-48
2022/02/11 16:58:38;;;;;;;;;;;3.40;99.90;;;;;;5052848;28;19936;-49
2022/02/11 17:01:05;;;;;;;;;;;3.30;99.90;;;;;;5057276;28;19978;-47
2022/02/11 17:03:31;;;;;;;;;;;3.20;99.90;;;;;;5073185;28;19924;-49
2022/02/11 17:05:58;;;;;;;;;;;3.00;99.90;;;;;;5055405;28;19929;-48
2022/02/11 17:08:27;;;;;;;;;;;2.90;99.90;;;;;;5052792;28;20394;-47
2022/02/11 17:10:57;;;;;;;;;;;2.80;99.90;;;;;;5032943;28;19983;-49
2022/02/11 17:13:24;;;;;;;;;;;2.70;99.90;;;;;;5033066;28;20043;-49
2022/02/11 17:15:51;;;;;;;;;;;2.60;99.90;;;;;;5089396;22;19978;-50
2022/02/11 17:18:20;;;;;;;;;;;2.80;99.90;;;;;;5073446;28;19924;-51
2022/02/11 17:20:47;;;;;;;;;;;2.80;99.90;;;;;;5074752;28;20410;-50
2022/02/11 17:23:17;;;;;;;;;;;2.70;99.90;;;;;;5073978;28;19978;-51
2022/02/11 17:25:45;;;;;;;;;;;2.70;99.90;;;;;;5058815;28;19984;-50
2022/02/11 17:28:14;;;;;;;;;;;2.60;99.90;;;;;;5054000;28;19932;-51
2022/02/11 17:30:42;;;;;;;;;;;2.70;99.90;;;;;;5053893;28;20452;-51
2022/02/11 17:33:08;;;;;;;;;;;2.60;99.90;;;;;;5053389;28;19925;-50
2022/02/11 17:35:35;;;;;;;;;;;2.60;99.90;;;;;;5054113;28;19928;-50
2022/02/11 17:38:02;;;;;;;;;;;2.50;99.90;;;;;;5053694;28;20449;-51
2022/02/11 17:40:28;;;;;;;;;;;2.40;99.90;;;;;;5054470;28;19928;-51
2022/02/11 17:42:57;;;;;;;;;;;2.30;99.90;;;;;;5053581;28;19928;-51
2022/02/11 17:45:24;;;;;;;;;;;2.30;99.90;;;;;;5053318;28;19972;-51
2022/02/11 17:47:51;;;;;;;;;;;2.20;99.90;;;;;;5054161;28;19978;-51
2022/02/11 17:50:17;;;;;;;;;;;2.20;99.90;;;;;;5053838;28;20498;-51
2022/02/11 17:52:44;;;;;;;;;;;2.10;99.90;;;;;;5040218;28;19926;-51
2022/02/11 17:58:16;;;;;;;;;;;2.00;99.90;;;;;;5039759;28;19924;-51
2022/02/11 18:00:42;;;;;;;;;;;1.90;99.90;;;;;;5053990;28;19925;-51
2022/02/11 18:03:09;;;;;;;;;;;1.80;99.90;;;;;;5053940;28;19925;-51
2022/02/11 18:05:36;;;;;;;;;;;1.80;99.90;;;;;;5047503;28;19937;-51
2022/02/11 18:08:03;;;;;;;;;;;1.90;99.90;;;;;;5052684;28;19994;-51
2022/02/11 18:10:30;;;;;;;;;;;1.90;99.90;;;;;;5053513;28;19929;-51
2022/02/11 18:12:56;;;;;;;;;;;1.80;99.90;;;;;;5054042;28;19928;-51
2022/02/11 18:15:24;;;;;;;;;;;1.80;99.90;;;;;;5053475;28;19979;-51
2022/02/11 18:17:51;;;;;;;;;;;1.90;99.90;;;;;;5053460;28;19933;-51